Time;durP1;ratioP1;P1;durP2;ratioP2;P2;SDS_P1;SDS_P2;PMS_P1;PMS_P2;Temp;Humidity;BMP_temperature;BMP_pressure;BME280_temperature;BME280_humidity;BME280_pressure;Samples;Min_cycle;Max_cycle;Signal;HPM_P1;HPM_P2
2022/05/21 00:01:33;;;;;;;20.15;8.35;;;;;;;20.20;77.76;95814.31;5062131;28;20033;-77
2022/05/21 00:03:58;;;;;;;19.60;9.18;;;;;;;20.12;77.49;95807.13;5058301;28;20059;-76
2022/05/21 00:06:23;;;;;;;23.15;9.23;;;;;;;20.10;77.01;95796.00;5068706;28;20148;-77
2022/05/21 00:08:49;;;;;;;16.98;9.18;;;;;;;20.06;75.83;95816.44;5059356;28;20045;-76
2022/05/21 00:11:15;;;;;;;21.45;8.98;;;;;;;20.02;76.30;95826.19;5055237;28;20425;-76
2022/05/21 00:13:40;;;;;;;18.98;8.48;;;;;;;19.94;76.64;95829.69;5069712;28;20501;-76
2022/05/21 00:16:06;;;;;;;15.70;7.88;;;;;;;19.77;77.00;95836.66;5049034;28;20490;-76
2022/05/21 00:18:32;;;;;;;18.52;8.15;;;;;;;19.67;77.64;95842.34;5066509;28;20094;-78
2022/05/21 00:20:57;;;;;;;24.23;9.30;;;;;;;19.59;78.45;95829.81;5067220;28;20490;-78
2022/05/21 00:23:31;;;;;;;17.42;8.15;;;;;;;19.56;79.09;95837.34;5060713;28;20052;-78
2022/05/21 00:26:10;;;;;;;20.65;9.27;;;;;;;19.39;79.85;95843.53;5066273;28;20072;-77
2022/05/21 00:28:38;;;;;;;22.17;8.75;;;;;;;19.30;80.25;95849.97;5067445;28;20033;-77
2022/05/21 00:31:05;;;;;;;23.95;9.52;;;;;;;19.23;81.85;95841.69;5063436;28;20093;-77
2022/05/21 00:33:32;;;;;;;29.38;9.65;;;;;;;19.11;81.98;95837.75;5061766;28;20044;-79
2022/05/21 00:35:58;;;;;;;16.25;8.73;;;;;;;19.10;82.02;95860.19;5069763;28;20041;-77
2022/05/21 00:38:24;;;;;;;18.23;9.07;;;;;;;19.03;82.98;95851.88;5068314;28;20514;-78
2022/05/21 00:40:50;;;;;;;21.42;9.27;;;;;;;19.01;83.00;95870.09;5055109;28;20051;-78
2022/05/21 00:43:40;;;;;;;23.05;9.00;;;;;;;18.97;82.38;95863.81;5061699;28;20037;-77
2022/05/21 00:46:10;;;;;;;23.90;10.13;;;;;;;18.90;82.77;95868.84;5053991;28;20073;-75
2022/05/21 00:48:39;;;;;;;18.15;9.07;;;;;;;18.88;82.19;95871.81;5060659;28;20049;-77
2022/05/21 00:51:20;;;;;;;24.30;10.13;;;;;;;18.76;82.63;95879.63;5065676;28;20041;-78
2022/05/21 00:53:47;;;;;;;23.65;8.43;;;;;;;18.73;83.16;95886.34;5065442;28;20052;-76
2022/05/21 00:56:14;;;;;;;17.33;8.18;;;;;;;18.74;82.18;95881.81;5068787;28;20817;-78
2022/05/21 01:01:30;;;;;;;21.17;8.23;;;;;;;18.65;81.61;95871.16;5053028;28;20045;-77
2022/05/21 01:03:55;;;;;;;14.80;8.13;;;;;;;18.66;80.41;95864.72;5054974;28;20506;-78
2022/05/21 01:06:21;;;;;;;19.55;7.60;;;;;;;18.61;80.42;95862.22;5054235;28;20052;-78
2022/05/21 01:08:47;;;;;;;16.30;7.90;;;;;;;18.60;81.12;95847.31;5054506;28;20052;-77
2022/05/21 01:11:16;;;;;;;13.85;7.75;;;;;;;18.59;79.86;95859.06;5059279;28;20036;-77
2022/05/21 01:13:44;;;;;;;12.40;7.15;;;;;;;18.57;79.87;95874.59;5073042;28;20603;-78
2022/05/21 01:16:11;;;;;;;16.50;8.07;;;;;;;18.50;82.21;95877.69;5063628;28;20041;-77
2022/05/21 01:18:37;;;;;;;16.92;7.28;;;;;;;18.43;81.77;95878.19;5054217;28;20491;-77
2022/05/21 01:21:03;;;;;;;13.95;7.55;;;;;;;18.23;83.69;95868.06;5065048;28;20048;-77
2022/05/21 01:23:29;;;;;;;14.70;7.70;;;;;;;18.19;83.92;95859.94;5054142;28;20049;-78
2022/05/21 01:25:56;;;;;;;14.73;7.88;;;;;;;18.12;83.64;95868.38;5065836;28;20327;-78
2022/05/21 01:28:24;;;;;;;16.88;8.07;;;;;;;18.11;83.62;95877.44;5070378;28;20498;-77
2022/05/21 01:30:53;;;;;;;15.38;7.38;;;;;;;18.09;84.59;95900.16;5061758;28;20041;-78
2022/05/21 01:33:22;;;;;;;18.23;8.05;;;;;;;17.97;85.85;95908.72;5062345;28;20522;-79
2022/05/21 01:35:48;;;;;;;19.55;7.82;;;;;;;17.98;87.36;95910.28;5055849;28;20547;-76
2022/05/21 01:38:16;;;;;;;24.92;8.88;;;;;;;17.47;95.62;95929.09;5072369;28;20049;-77
2022/05/21 01:40:41;;;;;;;19.88;8.95;;;;;;;17.06;100.00;95945.97;5060601;28;20033;-78
2022/05/21 01:45:52;;;;;;;20.92;8.75;;;;;;;16.33;100.00;95929.94;5060717;28;20055;-82
2022/05/21 01:48:23;;;;;;;20.55;10.07;;;;;;;16.13;100.00;95925.00;5070264;28;20040;-81
2022/05/21 01:50:50;;;;;;;20.85;9.35;;;;;;;16.03;100.00;95926.78;5056178;28;20111;-79
2022/05/21 01:53:17;;;;;;;23.05;10.27;;;;;;;16.10;100.00;95921.88;5055900;28;20041;-82
2022/05/21 01:55:43;;;;;;;24.58;11.55;;;;;;;15.96;100.00;95921.06;5052294;28;20045;-82
2022/05/21 01:58:09;;;;;;;20.58;10.70;;;;;;;15.75;100.00;95910.78;5051186;28;20048;-83
2022/05/21 02:00:35;;;;;;;22.23;10.00;;;;;;;15.70;100.00;95908.22;5052199;28;20417;-82
2022/05/21 02:03:01;;;;;;;23.02;12.00;;;;;;;15.68;100.00;95920.97;5061301;28;20481;-83
2022/05/21 02:05:26;;;;;;;20.73;11.50;;;;;;;15.62;100.00;95919.50;5070642;28;20046;-82
2022/05/21 02:07:52;;;;;;;19.33;11.02;;;;;;;15.68;100.00;95925.50;5067918;28;20540;-83
2022/05/21 02:10:18;;;;;;;20.95;11.05;;;;;;;15.60;100.00;95924.28;5065903;28;20032;-82
2022/05/21 02:12:43;;;;;;;26.65;11.73;;;;;;;15.56;100.00;95913.50;5054092;28;20146;-82
2022/05/21 02:15:09;;;;;;;22.40;12.23;;;;;;;15.65;100.00;95918.91;5051041;28;20041;-82
2022/05/21 02:17:35;;;;;;;21.05;12.57;;;;;;;15.51;100.00;95910.13;5058034;28;20059;-82
2022/05/21 02:20:01;;;;;;;26.95;12.45;;;;;;;15.56;100.00;95902.09;5053458;28;20099;-82
2022/05/21 02:22:27;;;;;;;26.10;12.75;;;;;;;15.66;100.00;95912.53;5058232;28;20040;-83
2022/05/21 02:24:52;;;;;;;31.33;13.30;;;;;;;15.59;100.00;95901.53;5065998;28;20411;-83
2022/05/21 02:27:18;;;;;;;28.58;12.95;;;;;;;15.49;100.00;95912.31;5066129;28;20037;-82
2022/05/21 02:29:44;;;;;;;26.33;13.10;;;;;;;15.59;100.00;95920.09;5060969;28;20494;-82
2022/05/21 02:32:11;;;;;;;26.30;13.40;;;;;;;15.63;100.00;95918.44;5055653;28;20037;-82
2022/05/21 02:34:36;;;;;;;24.02;12.02;;;;;;;15.66;100.00;95939.06;5054912;28;20036;-81
2022/05/21 02:39:47;;;;;;;28.02;13.38;;;;;;;15.66;100.00;95923.16;5057985;28;20036;-82
2022/05/21 02:44:57;;;;;;;28.83;12.73;;;;;;;15.67;100.00;95923.94;5055034;28;20041;-83
2022/05/21 02:47:24;;;;;;;24.98;13.27;;;;;;;15.65;100.00;95928.75;5048688;28;20048;-83
2022/05/21 02:49:49;;;;;;;26.08;12.90;;;;;;;15.59;100.00;95917.44;5060371;28;20041;-83
2022/05/21 02:52:15;;;;;;;27.52;13.63;;;;;;;15.57;100.00;95916.94;5054057;28;20048;-83
2022/05/21 02:54:41;;;;;;;26.80;12.60;;;;;;;15.71;100.00;95919.63;5068322;28;20044;-82
2022/05/21 02:57:11;;;;;;;23.02;11.85;;;;;;;15.71;100.00;95919.63;5065135;28;20052;-83
2022/05/21 02:59:38;;;;;;;24.90;12.35;;;;;;;15.73;100.00;95923.56;5058490;28;20052;-83
2022/05/21 03:02:04;;;;;;;24.00;12.25;;;;;;;15.67;100.00;95924.72;5060365;28;20044;-83
2022/05/21 03:04:30;;;;;;;22.42;12.20;;;;;;;15.59;100.00;95920.88;5062790;28;20040;-83
2022/05/21 03:06:56;;;;;;;20.67;11.77;;;;;;;15.55;100.00;95927.06;5049653;28;20037;-83
2022/05/21 03:12:08;;;;;;;21.33;11.52;;;;;;;15.53;100.00;95929.19;5061653;28;20047;-81
2022/05/21 03:14:33;;;;;;;23.25;10.90;;;;;;;15.54;100.00;95942.19;5068114;28;20043;-80
2022/05/21 03:17:02;;;;;;;22.88;11.63;;;;;;;15.44;100.00;95941.56;5055318;28;20049;-81
2022/05/21 03:19:29;;;;;;;20.00;11.02;;;;;;;15.49;100.00;95933.53;5048869;28;20041;-82
2022/05/21 03:21:56;;;;;;;23.15;11.73;;;;;;;15.47;100.00;95946.28;5060798;28;20040;-80
2022/05/21 03:24:21;;;;;;;19.98;11.23;;;;;;;15.39;100.00;95939.78;5068166;28;20184;-82
2022/05/21 03:26:47;;;;;;;22.17;10.55;;;;;;;15.31;100.00;95941.19;5057650;28;20037;-81
2022/05/21 03:29:13;;;;;;;24.67;10.70;;;;;;;15.32;100.00;95942.00;5048864;28;20045;-82
2022/05/21 03:31:38;;;;;;;19.42;10.93;;;;;;;15.22;100.00;95940.28;5055499;28;20407;-81
2022/05/21 03:34:04;;;;;;;17.70;10.32;;;;;;;15.22;100.00;95941.06;5066883;28;20044;-81
2022/05/21 03:36:30;;;;;;;18.33;10.70;;;;;;;15.24;100.00;95948.72;5061149;28;20051;-79
2022/05/21 03:38:57;;;;;;;22.88;10.70;;;;;;;15.23;100.00;95947.19;5063287;28;20044;-84
2022/05/21 03:41:24;;;;;;;25.90;10.95;;;;;;;15.13;100.00;95947.31;5054962;28;20041;-84
2022/05/21 03:43:50;;;;;;;20.13;10.27;;;;;;;15.23;100.00;95955.13;5067410;28;20513;-84
2022/05/21 03:46:16;;;;;;;21.20;10.88;;;;;;;15.22;100.00;95948.25;5060808;28;20037;-84
2022/05/21 03:48:42;;;;;;;18.77;10.43;;;;;;;15.24;100.00;95948.72;5057853;28;20043;-84
2022/05/21 03:51:07;;;;;;;19.25;10.02;;;;;;;15.28;100.00;95964.88;5068343;28;20669;-84
2022/05/21 03:53:33;;;;;;;20.13;10.27;;;;;;;15.14;100.00;95959.50;5069496;28;20048;-84
2022/05/21 03:55:59;;;;;;;21.50;10.30;;;;;;;15.27;100.00;95969.38;5063700;28;20043;-84
2022/05/21 03:58:25;;;;;;;19.95;10.30;;;;;;;15.18;100.00;95968.44;5058262;28;20531;-83
2022/05/21 04:00:50;;;;;;;21.05;9.75;;;;;;;15.20;100.00;95979.53;5064622;28;20048;-84
2022/05/21 04:03:16;;;;;;;20.38;10.63;;;;;;;15.19;100.00;95977.97;5060095;28;20116;-84
2022/05/21 04:05:43;;;;;;;20.27;10.50;;;;;;;15.22;100.00;95988.78;5072984;28;20041;-83
2022/05/21 04:08:09;;;;;;;22.58;11.18;;;;;;;15.16;100.00;95994.47;5072128;28;20048;-83
2022/05/21 04:10:35;;;;;;;16.13;10.10;;;;;;;15.13;100.00;95984.41;5061463;28;20116;-84
2022/05/21 04:13:00;;;;;;;15.50;9.63;;;;;;;15.15;100.00;95991.00;5051976;28;20040;-83
2022/05/21 04:15:26;;;;;;;19.05;10.35;;;;;;;15.07;100.00;95981.84;5052004;28;20550;-84
2022/05/21 04:17:53;;;;;;;18.30;10.00;;;;;;;15.16;100.00;95992.59;5052671;28;20410;-84
2022/05/21 04:20:23;;;;;;;23.20;11.20;;;;;;;15.15;100.00;96004.25;5062209;28;20037;-84
2022/05/21 04:22:49;;;;;;;20.15;9.88;;;;;;;15.14;100.00;96007.19;5057762;28;20432;-84
2022/05/21 04:25:15;;;;;;;17.33;9.85;;;;;;;15.07;100.00;96013.66;5056663;28;20036;-83
2022/05/21 04:27:41;;;;;;;20.08;10.60;;;;;;;15.12;100.00;96009.38;5069676;28;20087;-82
2022/05/21 04:30:16;;;;;;;17.52;9.63;;;;;;;15.04;100.00;96008.94;5052989;28;20041;-79
2022/05/21 04:32:45;;;;;;;17.42;9.63;;;;;;;15.07;100.00;96012.88;5055618;28;20048;-84
2022/05/21 04:35:12;;;;;;;16.65;9.00;;;;;;;15.06;100.00;95996.16;5063540;28;20654;-82
2022/05/21 04:37:39;;;;;;;19.10;8.93;;;;;;;15.24;100.00;96007.06;5053046;28;20372;-81
2022/05/21 04:40:08;;;;;;;18.50;9.57;;;;;;;15.15;100.00;95998.97;5059468;28;20497;-81
2022/05/21 04:42:33;;;;;;;16.98;9.32;;;;;;;15.17;100.00;96006.63;5062255;28;20445;-77
2022/05/21 04:44:59;;;;;;;18.02;9.75;;;;;;;15.13;100.00;96011.72;5055708;28;20041;-77
2022/05/21 04:47:25;;;;;;;13.38;8.15;;;;;;;15.22;100.00;96014.53;5052620;28;20095;-77
2022/05/21 04:49:50;;;;;;;15.32;9.00;;;;;;;15.19;100.00;96021.19;5069381;28;20090;-78
2022/05/21 04:52:16;;;;;;;14.75;8.90;;;;;;;15.27;100.00;96027.72;5052919;28;20037;-80
2022/05/21 04:54:41;;;;;;;18.00;8.82;;;;;;;15.39;100.00;96025.41;5051323;28;20037;-78
2022/05/21 04:57:07;;;;;;;11.68;8.02;;;;;;;15.28;100.00;96026.63;5059757;28;20052;-78
2022/05/21 04:59:33;;;;;;;16.33;8.68;;;;;;;15.34;100.00;96028.16;5069585;28;20036;-83
2022/05/21 05:01:59;;;;;;;17.25;9.20;;;;;;;15.35;100.00;96024.41;5057887;28;20494;-83
2022/05/21 05:04:25;;;;;;;18.00;8.40;;;;;;;15.40;100.00;96037.59;5061363;28;20074;-86
2022/05/21 05:06:50;;;;;;;12.32;7.43;;;;;;;15.42;100.00;96046.03;5058821;28;20041;-84
2022/05/21 05:09:21;;;;;;;13.00;8.13;;;;;;;15.47;100.00;96050.50;5063167;28;20064;-85
2022/05/21 05:11:47;;;;;;;14.63;6.63;;;;;;;15.56;100.00;96040.03;5063610;28;20498;-82
2022/05/21 05:14:13;;;;;;;14.60;7.13;;;;;;;15.55;100.00;96039.25;5058639;28;20033;-79
2022/05/21 05:16:38;;;;;;;13.32;6.97;;;;;;;15.52;100.00;96047.00;5055057;28;20045;-86
2022/05/21 05:19:04;;;;;;;12.65;6.38;;;;;;;15.36;100.00;96047.22;5052454;28;20041;-85
2022/05/21 05:21:30;;;;;;;15.25;6.50;;;;;;;15.25;100.00;96056.38;5053466;28;20045;-82
2022/05/21 05:23:56;;;;;;;10.32;6.00;;;;;;;15.20;100.00;96053.78;5062235;28;20355;-80
2022/05/21 05:26:25;;;;;;;9.98;6.00;;;;;;;15.18;100.00;96053.28;5062902;28;20419;-79
2022/05/21 05:28:51;;;;;;;15.65;5.60;;;;;;;15.18;100.00;96050.63;5057905;28;20040;-80
2022/05/21 05:31:17;;;;;;;11.43;5.68;;;;;;;15.23;100.00;96058.53;5059933;28;20036;-81
2022/05/21 05:33:42;;;;;;;9.98;5.63;;;;;;;15.20;100.00;96059.06;5065608;28;20522;-80
2022/05/21 05:36:08;;;;;;;11.82;6.28;;;;;;;15.18;100.00;96055.94;5054191;28;20044;-78
2022/05/21 05:38:34;;;;;;;11.63;5.82;;;;;;;15.27;100.00;96062.19;5056144;28;20155;-80
2022/05/21 05:40:59;;;;;;;9.80;5.65;;;;;;;15.39;100.00;96057.22;5056762;28;20763;-78
2022/05/21 05:43:25;;;;;;;12.02;6.00;;;;;;;15.33;100.00;96053.09;5054007;28;20049;-84
2022/05/21 05:45:58;;;;;;;9.38;5.65;;;;;;;15.39;100.00;96064.41;5051302;28;20045;-81
2022/05/21 05:48:27;;;;;;;23.38;5.85;;;;;;;15.41;100.00;96049.78;5052136;28;20136;-83
2022/05/21 05:50:54;;;;;;;9.38;5.32;;;;;;;15.46;100.00;96061.38;5058580;28;20043;-80
2022/05/21 05:53:20;;;;;;;11.20;5.22;;;;;;;15.48;99.35;96064.56;5065923;28;20166;-83
2022/05/21 05:55:45;;;;;;;9.57;5.18;;;;;;;15.48;98.46;96059.25;5062152;28;20079;-80
2022/05/21 06:00:55;;;;;;;12.38;5.32;;;;;;;15.52;96.83;96065.56;5069437;28;20041;-85
2022/05/21 06:03:21;;;;;;;8.55;5.18;;;;;;;15.52;98.07;96060.25;5059456;28;20048;-80
2022/05/21 06:05:49;;;;;;;11.40;5.30;;;;;;;15.52;98.26;96060.25;5052860;28;20045;-87
2022/05/21 06:08:14;;;;;;;9.27;5.93;;;;;;;15.52;95.59;96062.91;5055909;28;20060;-81
2022/05/21 06:10:43;;;;;;;11.55;5.28;;;;;;;15.61;95.50;96069.13;5057183;28;20041;-80
2022/05/21 06:13:08;;;;;;;9.18;5.13;;;;;;;15.71;96.17;96068.97;5062812;28;20113;-83
2022/05/21 06:15:34;;;;;;;10.25;5.18;;;;;;;15.74;96.57;96065.75;5069315;28;20071;-77
2022/05/21 06:18:06;;;;;;;10.50;5.22;;;;;;;15.70;99.33;96067.44;5069056;28;20044;-78
2022/05/21 06:20:32;;;;;;;9.10;5.13;;;;;;;15.89;97.87;96066.66;5069706;28;20499;-79
2022/05/21 06:22:57;;;;;;;10.10;5.47;;;;;;;15.93;94.22;96064.97;5068561;28;20401;-78
2022/05/21 06:25:25;;;;;;;8.85;5.35;;;;;;;15.94;97.44;96061.25;5070421;28;20036;-80
2022/05/21 06:27:52;;;;;;;11.00;5.50;;;;;;;16.11;95.15;96066.78;5052094;28;20041;-81
2022/05/21 06:30:20;;;;;;;13.38;5.55;;;;;;;16.15;99.21;96068.88;5064483;28;20044;-81
2022/05/21 06:32:46;;;;;;;10.85;5.57;;;;;;;16.34;92.22;96068.84;5067049;28;20091;-82
2022/05/21 06:35:14;;;;;;;8.88;4.93;;;;;;;16.15;91.58;96079.50;5061797;28;20115;-83
2022/05/21 06:37:39;;;;;;;14.27;5.20;;;;;;;15.94;93.49;96075.28;5065736;28;20044;-78
2022/05/21 06:40:07;;;;;;;14.88;5.28;;;;;;;15.92;91.23;96074.03;5056853;28;20047;-79
2022/05/21 06:42:32;;;;;;;8.88;5.30;;;;;;;15.82;89.91;96079.50;5054897;28;20041;-78
2022/05/21 06:44:59;;;;;;;10.95;5.00;;;;;;;15.89;90.83;96074.59;5063187;28;20040;-88
2022/05/21 06:47:25;;;;;;;8.57;4.80;;;;;;;16.03;85.31;96080.75;5063855;28;20045;-76
2022/05/21 06:49:55;;;;;;;8.75;5.10;;;;;;;16.03;85.10;96080.75;5050740;28;20057;-75
2022/05/21 06:52:24;;;;;;;11.57;4.85;;;;;;;16.24;86.45;96083.84;5066506;28;20044;-78
2022/05/21 06:54:50;;;;;;;9.70;4.95;;;;;;;16.24;84.61;96085.72;5065248;28;20040;-79
2022/05/21 06:57:16;;;;;;;11.18;5.15;;;;;;;16.31;87.37;96090.66;5060586;28;20041;-76
2022/05/21 06:59:42;;;;;;;10.75;4.65;;;;;;;16.41;85.00;96088.59;5064491;28;20040;-79
2022/05/21 07:02:08;;;;;;;8.70;4.50;;;;;;;16.47;82.10;96093.84;5066493;28;20078;-76
2022/05/21 07:07:33;;;;;;;8.40;4.18;;;;;;;16.28;81.71;96094.69;5054954;28;20041;-76
2022/05/21 07:10:05;;;;;;;8.50;3.90;;;;;;;16.45;80.19;96097.56;5057774;28;20110;-75
2022/05/21 07:12:32;;;;;;;11.70;4.45;;;;;;;16.41;82.28;96096.59;5058137;28;20044;-76
2022/05/21 07:14:57;;;;;;;9.23;4.47;;;;;;;16.34;77.42;96096.16;5060438;28;20094;-77
2022/05/21 07:17:23;;;;;;;10.32;4.15;;;;;;;16.27;78.96;96087.78;5070044;28;20040;-76
2022/05/21 07:19:49;;;;;;;7.25;4.13;;;;;;;16.27;81.91;96090.44;5054976;28;20424;-77
2022/05/21 07:22:14;;;;;;;7.75;4.43;;;;;;;16.28;78.75;96086.72;5063091;28;20059;-76
2022/05/21 07:24:42;;;;;;;9.82;4.55;;;;;;;16.50;79.58;96098.56;5061010;28;20541;-77
2022/05/21 07:27:09;;;;;;;10.95;5.28;;;;;;;16.42;77.10;96100.81;5070479;28;20051;-76
2022/05/21 07:29:39;;;;;;;12.00;4.68;;;;;;;16.48;78.10;96092.75;5067757;28;20094;-76
2022/05/21 07:32:06;;;;;;;8.57;4.65;;;;;;;16.52;81.90;96101.72;5051142;28;20674;-77
2022/05/21 07:34:32;;;;;;;8.05;4.30;;;;;;;16.71;77.71;96094.47;5048521;28;20056;-77
2022/05/21 07:36:58;;;;;;;10.90;4.43;;;;;;;16.66;74.82;96086.56;5063691;28;20045;-75
2022/05/21 07:39:23;;;;;;;11.32;5.28;;;;;;;16.59;75.98;96091.50;5070346;28;20513;-76
2022/05/21 07:41:49;;;;;;;9.07;5.25;;;;;;;16.43;75.96;96102.41;5067965;28;20090;-76
2022/05/21 07:44:14;;;;;;;6.95;4.50;;;;;;;16.62;75.25;96090.91;5070145;28;20060;-74
2022/05/21 07:46:40;;;;;;;5.82;3.97;;;;;;;16.63;73.50;96084.50;5058521;28;20064;-76
2022/05/21 07:49:05;;;;;;;8.95;4.22;;;;;;;16.78;75.93;96084.22;5049454;28;20040;-76
2022/05/21 07:51:32;;;;;;;10.63;4.38;;;;;;;17.22;73.67;96083.94;5063216;28;20037;-76
2022/05/21 07:53:58;;;;;;;8.85;4.95;;;;;;;17.29;71.18;96079.00;5069691;28;20056;-75
2022/05/21 07:56:24;;;;;;;10.50;4.75;;;;;;;17.07;71.75;96085.84;5069530;28;20044;-75
2022/05/21 07:58:49;;;;;;;7.50;4.22;;;;;;;17.16;75.29;96072.63;5059121;28;20048;-76
2022/05/21 08:01:16;;;;;;;7.28;4.30;;;;;;;17.44;74.01;96073.38;5049234;28;20525;-76
2022/05/21 08:03:42;;;;;;;9.05;4.40;;;;;;;17.25;73.10;96070.06;5051795;28;20068;-80
2022/05/21 08:06:07;;;;;;;8.25;4.30;;;;;;;17.47;73.50;96072.78;5054288;28;20038;-79
2022/05/21 08:08:33;;;;;;;9.05;4.50;;;;;;;17.34;74.77;96068.28;5064612;28;20047;-78
2022/05/21 08:10:59;;;;;;;8.00;4.57;;;;;;;17.24;75.00;96058.63;5071071;28;20041;-80
2022/05/21 08:13:25;;;;;;;12.25;5.07;;;;;;;17.35;74.22;96058.41;5068779;28;20106;-77
2022/05/21 08:15:50;;;;;;;10.90;4.90;;;;;;;17.47;75.41;96072.78;5069999;28;20045;-80
2022/05/21 08:18:16;;;;;;;7.28;4.35;;;;;;;17.80;71.31;96069.91;5069638;28;20040;-79
2022/05/21 08:20:42;;;;;;;8.10;4.70;;;;;;;17.87;72.66;96068.69;5069467;28;20102;-80
2022/05/21 08:28:40;;;;;;;6.90;4.40;;;;;;;17.68;71.90;96061.66;5071545;28;20063;-81
2022/05/21 08:31:06;;;;;;;9.45;4.90;;;;;;;17.62;72.88;96062.88;5062376;28;20068;-79
2022/05/21 08:33:32;;;;;;;7.93;4.38;;;;;;;17.66;71.29;96063.84;5054527;28;20048;-77
2022/05/21 08:35:57;;;;;;;7.47;3.45;;;;;;;17.70;63.63;96059.50;5051477;28;20500;-76
2022/05/21 08:38:23;;;;;;;7.55;3.63;;;;;;;17.48;64.87;96062.91;5048288;28;20067;-76
2022/05/21 08:41:02;;;;;;;7.68;3.92;;;;;;;17.66;64.22;96053.19;5049716;28;20506;-77
2022/05/21 08:44:04;;;;;;;5.82;3.58;;;;;;;17.78;66.38;96056.09;5052473;28;20049;-76
2022/05/21 08:46:54;;;;;;;5.18;3.50;;;;;;;17.78;66.18;96044.69;5070591;28;20036;-80
2022/05/21 08:50:01;;;;;;;9.68;3.95;;;;;;;18.26;67.46;96060.06;5072558;28;20040;-79
2022/05/21 08:52:45;;;;;;;6.18;3.50;;;;;;;18.47;62.15;96054.97;5072568;28;20048;-76
2022/05/21 08:55:26;;;;;;;5.60;3.40;;;;;;;18.79;59.95;96054.94;5061591;28;20056;-77
2022/05/21 08:58:00;;;;;;;6.30;2.85;;;;;;;18.85;56.09;96043.84;5063346;28;20055;-76
2022/05/21 09:00:37;;;;;;;5.80;2.72;;;;;;;18.80;55.04;96041.31;5059307;28;20052;-77
2022/05/21 09:03:08;;;;;;;5.75;3.40;;;;;;;18.91;54.34;96043.75;5059035;28;20060;-80
2022/05/21 09:05:35;;;;;;;4.90;3.22;;;;;;;18.95;55.76;96047.34;5057018;28;20033;-76
2022/05/21 09:08:31;;;;;;;7.10;3.25;;;;;;;18.71;54.63;96037.84;5051498;28;20655;-76
2022/05/21 09:11:03;;;;;;;7.38;3.50;;;;;;;18.78;57.33;96038.19;5055333;28;20060;-78
2022/05/21 09:14:15;;;;;;;5.15;3.10;;;;;;;19.18;55.02;96040.03;5062767;28;20099;-78
2022/05/21 09:16:55;;;;;;;5.72;3.00;;;;;;;19.13;52.71;96030.28;5067171;28;20044;-77
2022/05/21 09:19:38;;;;;;;5.75;3.00;;;;;;;19.36;53.73;96032.81;5057897;28;20108;-81
2022/05/21 09:22:13;;;;;;;4.40;3.00;;;;;;;19.21;53.00;96034.84;5067237;28;20417;-81
2022/05/21 09:24:43;;;;;;;4.68;2.90;;;;;;;19.40;53.20;96036.44;5066588;28;20123;-78
2022/05/21 09:27:24;;;;;;;6.15;3.10;;;;;;;19.49;54.85;96034.56;5057001;28;20490;-81
2022/05/21 09:30:13;;;;;;;5.82;2.70;;;;;;;19.55;53.70;96038.66;5069232;28;20051;-78
2022/05/21 09:32:40;;;;;;;5.63;2.70;;;;;;;19.58;50.75;96026.53;5056617;28;20056;-77
2022/05/21 09:35:11;;;;;;;3.88;2.55;;;;;;;19.76;49.37;96035.34;5073420;28;20052;-77
2022/05/21 09:37:38;;;;;;;7.10;2.63;;;;;;;19.71;50.36;96030.16;5073122;28;20060;-77
2022/05/21 09:40:35;;;;;;;5.05;2.88;;;;;;;19.72;50.01;96026.41;5073843;28;20036;-75
2022/05/21 09:46:19;;;;;;;6.63;2.70;;;;;;;19.95;48.25;96034.25;5071605;28;20476;-77
2022/05/21 09:48:46;;;;;;;5.07;2.55;;;;;;;19.88;48.11;96024.84;5072766;28;20044;-75
2022/05/21 09:51:22;;;;;;;3.70;2.30;;;;;;;20.03;49.58;96033.47;5070913;28;20612;-76
2022/05/21 09:53:47;;;;;;;4.13;2.60;;;;;;;20.02;50.50;96023.88;5070516;28;20044;-76
2022/05/21 09:56:27;;;;;;;13.13;2.88;;;;;;;20.16;49.36;96029.81;5067413;28;20048;-75
2022/05/21 09:59:15;;;;;;;4.72;2.55;;;;;;;20.12;50.38;96026.22;5052048;28;20037;-75
2022/05/21 10:01:57;;;;;;;3.08;2.17;;;;;;;20.11;49.03;96021.97;5056821;28;20079;-74
2022/05/21 10:04:39;;;;;;;6.63;2.58;;;;;;;20.47;48.65;96028.78;5053530;28;20056;-75
2022/05/21 10:13:14;;;;;;;5.32;3.00;;;;;;;21.03;46.13;96027.91;5062653;28;20056;-76
2022/05/21 10:15:47;;;;;;;5.32;2.60;;;;;;;21.29;45.82;96020.50;5073141;28;20413;-76
2022/05/21 10:18:29;;;;;;;7.50;3.20;;;;;;;21.55;47.63;96022.25;5060788;28;20040;-75
2022/05/21 10:21:01;;;;;;;7.35;3.42;;;;;;;21.91;46.63;96018.16;5056020;28;20090;-74
2022/05/21 10:23:27;;;;;;;4.60;2.58;;;;;;;21.86;45.19;96014.88;5067423;28;20437;-77
2022/05/21 10:26:25;;;;;;;7.07;3.20;;;;;;;21.42;43.85;96020.56;5064585;28;20067;-74
2022/05/21 10:29:09;;;;;;;9.60;4.47;;;;;;;21.77;45.53;96006.94;5061859;28;20048;-78
2022/05/21 10:31:44;;;;;;;16.80;6.78;;;;;;;21.91;44.45;96012.78;5052692;28;20044;-77
2022/05/21 10:34:25;;;;;;;15.00;5.57;;;;;;;22.29;44.17;96006.38;5053818;28;20545;-77
2022/05/21 10:36:59;;;;;;;6.13;2.90;;;;;;;22.19;45.70;96004.13;5064831;28;20126;-79
2022/05/21 10:40:07;;;;;;;10.73;4.45;;;;;;;22.33;44.54;96006.53;5063626;28;20799;-83
2022/05/21 10:42:35;;;;;;;13.07;3.63;;;;;;;22.93;43.20;96001.53;5062243;28;20469;-81
2022/05/21 10:45:19;;;;;;;6.15;3.13;;;;;;;23.13;41.35;95999.06;5051606;28;20087;-81
2022/05/21 10:48:19;;;;;;;7.72;4.38;;;;;;;22.87;41.35;95992.16;5052865;28;20142;-81
2022/05/21 10:51:15;;;;;;;5.85;3.38;;;;;;;22.97;42.22;95991.69;5050801;28;20056;-81
2022/05/21 10:53:52;;;;;;;4.10;2.40;;;;;;;23.01;39.98;95991.78;5052138;28;20514;-82
2022/05/21 10:56:36;;;;;;;7.45;2.20;;;;;;;23.36;39.77;95985.94;5052338;28;20044;-82
2022/05/21 10:59:11;;;;;;;;;;;;;;;23.58;39.30;95976.56;5059867;28;20032;-82
2022/05/21 11:01:53;;;;;;;7.32;2.60;;;;;;;23.93;38.90;95981.34;5063102;28;19927;-78
2022/05/21 11:04:38;;;;;;;7.20;2.15;;;;;;;23.79;39.80;95964.81;5051225;28;20411;-79
2022/05/21 11:07:10;;;;;;;4.43;2.30;;;;;;;23.50;39.62;95980.97;5061220;28;20036;-77
2022/05/21 11:09:45;;;;;;;3.60;2.42;;;;;;;23.10;39.85;95983.59;5069942;28;20048;-76
2022/05/21 11:12:18;;;;;;;3.95;2.10;;;;;;;23.78;39.92;95974.03;5063815;28;20041;-76
2022/05/21 11:14:52;;;;;;;3.05;2.13;;;;;;;24.59;39.42;95973.75;5051798;28;20059;-72
2022/05/21 11:17:42;;;;;;;5.40;2.30;;;;;;;24.99;36.81;95970.06;5056081;28;20071;-78
2022/05/21 11:20:31;;;;;;;4.75;2.05;;;;;;;25.33;34.72;95962.34;5054647;28;20041;-75
2022/05/21 11:22:56;;;;;;;2.08;1.85;;;;;;;25.10;36.16;95964.13;5060229;28;20049;-74
2022/05/21 11:25:43;;;;;;;3.80;2.30;;;;;;;25.09;35.13;95968.75;5055560;28;20033;-74
2022/05/21 11:28:27;;;;;;;5.32;1.90;;;;;;;25.16;36.24;95962.72;5063811;28;20036;-77
2022/05/21 11:31:01;;;;;;;3.10;1.75;;;;;;;25.34;33.69;95963.91;5056793;28;20502;-76
2022/05/21 11:39:02;;;;;;;3.60;1.90;;;;;;;25.55;33.82;95968.91;5063457;28;20100;-77
2022/05/21 11:42:08;;;;;;;3.38;1.83;;;;;;;26.07;32.75;95953.34;5068338;28;20578;-77
2022/05/21 11:44:55;;;;;;;5.10;1.90;;;;;;;26.45;31.89;95967.06;5061510;28;20383;-76
2022/05/21 11:47:21;;;;;;;3.45;1.65;;;;;;;26.14;28.73;95970.78;5058736;28;20047;-75
2022/05/21 11:49:57;;;;;;;1.90;1.67;;;;;;;26.22;29.89;95956.25;5066711;28;20064;-77
2022/05/21 11:52:25;;;;;;;3.15;1.90;;;;;;;26.85;30.61;95954.97;5068246;28;20044;-76
2022/05/21 11:54:51;;;;;;;3.72;1.90;;;;;;;26.59;30.38;95958.41;5059659;28;20044;-77
2022/05/21 11:57:39;;;;;;;6.43;1.80;;;;;;;26.51;27.56;95943.25;5049778;28;20487;-77
2022/05/21 12:00:07;;;;;;;4.15;1.65;;;;;;;26.30;29.14;95949.84;5060623;28;20048;-77
2022/05/21 12:02:36;;;;;;;3.67;1.80;;;;;;;27.32;28.56;95939.34;5069972;28;20040;-77
2022/05/21 12:05:05;;;;;;;3.42;1.60;;;;;;;26.92;29.53;95943.47;5052015;28;20044;-76
2022/05/21 12:07:49;;;;;;;1.90;1.50;;;;;;;27.83;30.37;95944.19;5051842;28;20036;-77
2022/05/21 12:10:23;;;;;;;3.88;1.67;;;;;;;27.46;29.06;95939.53;5060756;28;20437;-74
2022/05/21 12:13:03;;;;;;;5.75;1.70;;;;;;;27.67;27.65;95959.88;5070399;28;20041;-76
2022/05/21 12:15:38;;;;;;;5.22;1.90;;;;;;;27.56;28.16;95937.34;5069566;28;20123;-77
2022/05/21 12:18:09;;;;;;;2.85;1.70;;;;;;;27.45;27.71;95932.56;5063746;28;20052;-77